Kaley — V7LL2 — position and weather

sailwx.info

Track history (hours):
 
Tides and Currents Weather Stations Pressure Air Temp Water Temp Dewpoint Dewpoint Depression Visibility Wind Speed Wind Dir Waves Ship Positions

Kaley

Last reported at 2017-Nov-12 06:00 UTC. Time now 2017-Nov-24 18:43 UTC.
Position N 22°26' E 120°19'.
Warning: this ship's position is 12 days out of date.

Length 199 m; draft 7.4 m.

Type: Cargo ship. MMSI: 538006289.

Date/timePositionNaut miles runAvg speedWind from/ knotsBaromVisibWave heightAir tempDewpointWater temp
2017-Nov-12 06:00N 22°26' E 120°19'0 0.1
2017-Nov-12 05:30N 22°26' E 120°20'0 0.0
2017-Nov-12 05:00N 22°26' E 120°20'0 0.0
2017-Nov-12 04:30N 22°26' E 120°20'0 0.0
2017-Nov-12 03:57N 22°26' E 120°20'0 0.1
2017-Nov-12 03:30N 22°26' E 120°19'0 0.0
2017-Nov-12 02:57N 22°26' E 120°19'0 0.0
2017-Nov-12 02:30N 22°26' E 120°19'0 0.0
2017-Nov-12 02:00N 22°26' E 120°19'0 0.0
2017-Nov-12 01:30N 22°26' E 120°19'0 0.0
2017-Nov-12 01:00N 22°26' E 120°19'0 0.0
2017-Nov-12 00:27N 22°26' E 120°19'0 0.1
2017-Nov-12 00:00N 22°26' E 120°19'0 0.0
2017-Nov-11 23:30N 22°26' E 120°19'0 0.1
2017-Nov-11 23:00N 22°26' E 120°19'0 0.1
2017-Nov-11 22:30N 22°26' E 120°19'0 0.1
2017-Nov-11 21:57N 22°26' E 120°19'0 0.0
2017-Nov-11 21:30N 22°26' E 120°19'0 0.1
2017-Nov-11 20:57N 22°26' E 120°19'0 0.6
2017-Nov-11 20:30N 22°26' E 120°19'1 2.2
2017-Nov-11 20:00N 22°25' E 120°18'3 6.2
2017-Nov-11 19:30N 22°26' E 120°15'611.6
2017-Nov-11 19:00N 22°30' E 120°11'611.7
2017-Nov-11 18:30N 22°35' E 120°09'611.2
2017-Nov-11 18:00N 22°40' E 120°05'4 8.1
2017-Nov-11 17:31N 22°43' E 120°02'5 9.5
2017-Nov-11 17:00N 22°46' E 119°58'5 9.1
2017-Nov-11 16:25N 22°50' E 119°54'  
Track history (hours):
 
Tides and Currents Weather Stations Pressure Air Temp Water Temp Dewpoint Dewpoint Depression Visibility Wind Speed Wind Dir Waves Ship Positions

Kaley

Last reported at 2017-Nov-12 06:00 UTC. Time now 2017-Nov-24 18:43 UTC.
Position N 22°26' E 120°19'.
Warning: this ship's position is 12 days out of date.

Length 199 m; draft 7.4 m.

Type: Cargo ship. MMSI: 538006289.

Date/timePositionNaut miles runAvg speedWind from/ knotsBaromVisibWave heightAir tempDewpointWater temp
2017-Nov-12 06:00N 22°26' E 120°19'0 0.1
2017-Nov-12 05:30N 22°26' E 120°20'0 0.0
2017-Nov-12 05:00N 22°26' E 120°20'0 0.0
2017-Nov-12 04:30N 22°26' E 120°20'0 0.0
2017-Nov-12 03:57N 22°26' E 120°20'0 0.1
2017-Nov-12 03:30N 22°26' E 120°19'0 0.0
2017-Nov-12 02:57N 22°26' E 120°19'0 0.0
2017-Nov-12 02:30N 22°26' E 120°19'0 0.0
2017-Nov-12 02:00N 22°26' E 120°19'0 0.0
2017-Nov-12 01:30N 22°26' E 120°19'0 0.0
2017-Nov-12 01:00N 22°26' E 120°19'0 0.0
2017-Nov-12 00:27N 22°26' E 120°19'0 0.1
2017-Nov-12 00:00N 22°26' E 120°19'0 0.0
2017-Nov-11 23:30N 22°26' E 120°19'0 0.1
2017-Nov-11 23:00N 22°26' E 120°19'0 0.1
2017-Nov-11 22:30N 22°26' E 120°19'0 0.1
2017-Nov-11 21:57N 22°26' E 120°19'0 0.0
2017-Nov-11 21:30N 22°26' E 120°19'0 0.1
2017-Nov-11 20:57N 22°26' E 120°19'0 0.6
2017-Nov-11 20:30N 22°26' E 120°19'1 2.2
2017-Nov-11 20:00N 22°25' E 120°18'3 6.2
2017-Nov-11 19:30N 22°26' E 120°15'611.6
2017-Nov-11 19:00N 22°30' E 120°11'611.7
2017-Nov-11 18:30N 22°35' E 120°09'611.2
2017-Nov-11 18:00N 22°40' E 120°05'4 8.1
2017-Nov-11 17:31N 22°43' E 120°02'5 9.5
2017-Nov-11 17:00N 22°46' E 119°58'5 9.1
2017-Nov-11 16:25N 22°50' E 119°54'  

Dump ship's entire track history